ADDS METAR Data INFO
IDs: Format: Raw Decoded Include TAF

Data at: 1206 UTC 21 Jun 2018

KGNV 211153Z 26007KT 7SM CLR 28/25 A2995 RMK AO2 SLP138 60022 70033 T02780250 10278 20250 53013
KGNV 211053Z 25004KT 6SM BR CLR 26/24 A2993 RMK AO2 SLP132 T02610244
KGNV 210953Z AUTO 00000KT 7SM CLR 26/23 A2992 RMK AO2 SLP128 T02560233
KGNV 210853Z AUTO 27003KT 10SM CLR 26/23 A2991 RMK AO2 LTG DSNT SE RAE0757 SLP125 P0001 60022 T02560233 58009
KGNV 210828Z AUTO 24004KT 10SM CLR 26/23 A2992 RMK AO2 LTG DSNT SE RAE0757 P0001 T02560233
KGNV 210753Z AUTO 21008KT 10SM VCTS -RA FEW055 FEW070 BKN090 25/22 A2993 RMK AO2 LTG DSNT SE TSE36 SLP132 P0009 T02500222
KGNV 210742Z AUTO 18006KT 6SM VCTS RA BKN055 BKN080 OVC095 25/22 A2993 RMK AO2 LTG DSNT SW AND W TSE36 P0009 T02500222
KGNV 210657Z AUTO 24011KT 3SM -TSRA BR FEW029 OVC060 26/24 A2993 RMK AO2 P0001 T02610239
KGNV 210653Z AUTO 23010G15KT 1 1/2SM TSRA BR SCT029 OVC060 26/24 A2994 RMK AO2 RAB32 TSB46 SLP133 P0012 T02610239
KGNV 210645Z AUTO 24004KT 1 3/4SM VCTS +RA BR SCT027 BKN060 OVC110 26/24 A2994 RMK AO2 RAB32 P0003 T02610239
KGNV 210636Z AUTO 00000KT 5SM VCTS RA BR BKN060 BKN110 26/24 A2994 RMK AO2 RAB32 P0000 T02560239
KGNV 210553Z AUTO 14004KT 8SM CLR 26/23 A2995 RMK AO2 SLP137 60000 T02560233 10261 20244 50000
KGNV 210453Z AUTO 00000KT 10SM CLR 26/23 A2996 RMK AO2 SLP140 T02560233 403390239
KGNV 210353Z AUTO 25004KT 10SM FEW090 26/23 A2995 RMK AO2 SLP138 T02560233
KGNV 210253Z AUTO 24003KT 10SM CLR 25/23 A2995 RMK AO2 SLP137 60000 T02500233 53005
KGNV 210153Z 00000KT 10SM CLR 26/23 A2994 RMK AO2 SLP136 T02560228
KGNV 210053Z 22004KT 10SM FEW100 25/22 A2993 RMK AO2 RAE34 SLP132 P0000 T02500222
KGNV 202353Z 24004KT 10SM -RA SCT110 24/22 A2993 RMK AO2 TSE2255 SLP132 P0001 60011 T02440222 10339 20239 58002
KGNV 202322Z 20005KT 10SM -RA FEW120 24/22 A2993 RMK AO2 LTG DSNT SW TSE2255 P0000 T02390222
KGNV 202301Z 00000KT 10SM VCTS -RA FEW100 24/22 A2994 RMK AO2 LTG DSNT ALQDS TSE2255 P0000 T02390222
KGNV 202253Z 10003KT 10SM -TSRA FEW100 24/22 A2995 RMK AO2 LTG DSNT NE AND SE AND SW TSE34B35 SLP138 P0010 T02440222
KGNV 202221Z 00000KT 3SM -TSRA BR SCT041 SCT060 BKN070 24/22 A2996 RMK AO2 LTG DSNT N-E P0009 T02390217
KGNV 202217Z 00000KT 1 1/2SM TSRA BR SCT039 BKN050 OVC110 24/22 A2996 RMK AO2 LTG DSNT N-E P0008 T02390217
KGNV 202209Z 26003KT 2 1/2SM TSRA BR FEW015 SCT026 BKN049 24/22 A2996 RMK AO2 LTG DSNT ALQDS PRESFR P0000 T02390217
KGNV 202153Z 32009KT 8SM -TSRA FEW012 BKN017 OVC055 26/22 A2997 RMK AO2 LTG DSNT ALQDS RAB51 TSE2058B48 SLP147 P0000 T02610217
KGNV 202136Z 11006KT 10SM VCTS BKN017 BKN023 BKN070 27/23 A2996 RMK AO2 LTG DSNT ALQDS TSE2058 T02670233
KGNV 202104Z 17005KT 10SM VCTS FEW024 FEW060 SCT070 27/23 A2996 RMK AO2 LTG DSNT ALQDS TSE2058 PRESRR T02670228
KGNV 202053Z 18007KT 10SM TS FEW026 SCT049 BKN060 27/23 A2994 RMK AO2 LTG DSNT ALQDS TSE27B36 SLP135 T02720228 53008
KGNV 202042Z 20008G17KT 10SM TS SCT049 BKN060 BKN090 28/23 A2994 RMK AO2 LTG DSNT ALQDS TSE27B36 T02780228
KGNV 202033Z 21010KT 10SM VCTS SCT048 BKN065 28/23 A2994 RMK AO2 LTG DSNT ALQDS TSE27 T02830233
KGNV 201953Z 20010KT 10SM TS BKN050 BKN060 29/23 A2991 RMK AO2 WSHFT 1911 LTG DSNT ALQDS TSB45 SLP124 T02940228
KGNV 201951Z 20010KT 10SM TS BKN050 BKN060 30/22 A2991 RMK AO2 WSHFT 1911 LTG DSNT ALQDS TSB45
KGNV 201931Z 27013G21KT 10SM VCTS SCT038 BKN046 OVC070 32/22 A2991 RMK AO2 WSHFT 1911 LTG DSNT ALQDS T03170222
KGNV 201920Z 25016G19KT 10SM VCTS BKN038 BKN055 OVC090 32/23 A2991 RMK AO2 LTG DSNT ALQDS T03170233
KGNV 201853Z 18008KT 140V210 10SM FEW033 BKN050 33/25 A2991 RMK AO2 LTG DSNT ALQDS SLP126 T03330250
KGNV 201753Z 21004KT 10SM SCT034 SCT050 BKN065 33/24 A2994 RMK AO2 LTG DSNT NE AND SW AND W SLP134 T03330244 10339 20267 58011
KGNV 201653Z 23006KT 10SM SCT028 SCT037 33/25 A2996 RMK AO2 SLP141 T03280250
KGNV 201648Z 25007KT 10SM BKN028 BKN037 32/25 A2996 RMK AO2
KGNV 201553Z 25007KT 10SM SCT024 32/25 A2997 RMK AO2 SLP145 T03220250
KGNV 201453Z 21007KT 10SM FEW019 FEW095 31/25 A2999 RMK AO2 SLP150 T03110250 50002
KGNV 201353Z 20008KT 10SM FEW018 FEW085 29/24 A2999 RMK AO2 SLP153 T02940244
KGNV 201253Z 19005KT 10SM CLR 29/24 A2998 RMK AO2 SLP149 T02890244
KGNV 201153Z 19004KT 10SM CLR 27/24 A2998 RMK AO2 LTG DSNT SW SLP149 60001 70024 T02670239 10267 20250 53005
KGNV 201053Z 00000KT 8SM CLR 25/23 A2997 RMK AO2 LTG DSNT SW SLP145 T02500233
KGNV 201018Z AUTO 00000KT 10SM FEW002 SCT023 BKN046 25/23 A2997 RMK AO2 T02500233
KGNV 200953Z AUTO 00000KT 7SM BKN050 BKN060 26/23 A2997 RMK AO2 SLP146 T02560233
KGNV 200853Z AUTO 00000KT 7SM FEW055 25/23 A2997 RMK AO2 SLP144 60001 T02500233 55006
KGNV 200753Z AUTO 00000KT 9SM CLR 25/23 A2996 RMK AO2 RAB09E24 SLP141 P0001 T02500233
KGNV 200653Z AUTO 00000KT 10SM OVC110 26/23 A2997 RMK AO2 RAB0557E40 SLP145 P0000 T02560233
KGNV 200553Z AUTO 00000KT 10SM FEW090 OVC110 26/23 A2998 RMK AO2 SLP149 60000 T02610228 10261 20250 58005
KGNV 200453Z AUTO 00000KT 10SM FEW080 OVC110 26/23 A3001 RMK AO2 SLP158 T02560233 403440233
KGNV 200353Z AUTO 00000KT 10SM FEW095 BKN120 25/23 A3001 RMK AO2 SLP158 T02500228
KGNV 200253Z AUTO 28004KT 10SM CLR 25/23 A3000 RMK AO2 SLP156 60000 T02500228 51006
KGNV 200153Z 27004KT 10SM FEW080 25/23 A3000 RMK AO2 LTG DSNT W SLP155 T02500228
KGNV 200053Z 13003KT 10SM FEW075 SCT110 25/23 A2999 RMK AO2 RAE2354 SLP153 P0000 T02500228